ROMMA est une association bénévole à but non lucratif. Votre soutien est indispensable : ADHERER à ROMMA ou FAIRE un DON

Peyrus - (26, Drôme)

Vercors Ouest (430 m)   Longitude: 05°06'28"E   Latitude: 44°54'41"N Station partenaire n°83
 

Détail journalier du     <<     >>

Température Precipitation Humidité Pression Vent Dir Rafale Dir. rafale Second capteur de température situé à 410 m
Heure (°C) (mm) (%) (hPa) (km/h) (km/h) (°C)
01:00 10.307610172ESE15ESE10.6
02:00 10.907010173S23S10.6
03:00 11.106610173S21S11.1
04:00 11.406310173S29S11.1
05:00 11.406310185SO29OSO11.1
06:00 10.706610182SO16SO10.0
07:00 10.606510183SO27OSO10.6
08:00 10.906310183SE39SE10.6
09:00 9.30.47710192S23SSO9.4
10:00 9.407710201SSE13SSE10.0
11:00 10.307510201SE15S11.1
12:00 11.107510202SSE18S11.7
13:00 11.307710202SE16SE11.7
14:00 11.207810203E15SE12.2
15:00 11.807610202ENE13ENE12.8
16:00 12.207910202ENE11E12.8
17:00 13.20.27010192SE15SO13.9
18:00 13.307010192SSE15ESE13.9
19:00 12.507210191SO15S12.8
20:00 12.307210191S11SSO12.2
21:00 10.807510201SO10OSO8.3
22:00 9.20801020006.7
23:00 8.30821020005.6
minuit 8.10821020005.6

Graphique du 16-04-2019

 

Serveur OMMA